Time;durP1;ratioP1;P1;durP2;ratioP2;P2;SDS_P1;SDS_P2;PMS_P1;PMS_P2;Temp;Humidity;BMP_temperature;BMP_pressure;BME280_temperature;BME280_humidity;BME280_pressure;Samples;Min_cycle;Max_cycle;Signal;HPM_P1;HPM_P2
2021/05/19 00:00:56;;;;;;;13.43;9.02;;;7.50;92.50;;;;;;5047354;28;20102;-62
2021/05/19 00:03:22;;;;;;;15.20;9.75;;;7.90;92.50;;;;;;5048400;28;20062;-62
2021/05/19 00:05:49;;;;;;;14.82;8.77;;;7.80;92.60;;;;;;5050425;28;20066;-62
2021/05/19 00:08:14;;;;;;;14.68;9.05;;;7.90;92.60;;;;;;5047562;28;20079;-62
2021/05/19 00:10:40;;;;;;;12.57;8.77;;;9.00;93.10;;;;;;5049308;28;20087;-62
2021/05/19 00:13:07;;;;;;;13.48;9.48;;;8.60;93.00;;;;;;5040951;28;20115;-62
2021/05/19 00:15:33;;;;;;;14.10;8.63;;;7.50;92.40;;;;;;5046327;28;20029;-62
2021/05/19 00:18:05;;;;;;;15.25;8.70;;;7.40;92.50;;;;;;5049279;28;20545;-62
2021/05/19 00:20:31;;;;;;;10.73;7.95;;;7.70;92.50;;;;;;5044029;28;20184;-62
2021/05/19 00:22:57;;;;;;;9.88;7.30;;;8.90;92.90;;;;;;5048531;28;20082;-62
2021/05/19 00:25:23;;;;;;;11.77;7.93;;;7.60;92.50;;;;;;5047549;28;20498;-62
2021/05/19 00:27:51;;;;;;;11.30;7.78;;;6.50;92.10;;;;;;5034099;28;20469;-62
2021/05/19 00:30:20;;;;;;;9.95;7.63;;;6.10;92.70;;;;;;5049956;28;20089;-62
2021/05/19 00:32:45;;;;;;;11.40;8.18;;;7.60;92.50;;;;;;5044881;28;20088;-62
2021/05/19 00:35:11;;;;;;;11.48;7.95;;;8.20;92.80;;;;;;5075596;28;20142;-62
2021/05/19 00:37:37;;;;;;;11.80;8.45;;;7.50;92.40;;;;;;5049155;28;20115;-62
2021/05/19 00:40:04;;;;;;;12.13;7.68;;;8.10;92.70;;;;;;5047049;28;20089;-61
2021/05/19 00:42:30;;;;;;;11.63;7.78;;;7.40;92.80;;;;;;5049178;28;20088;-62
2021/05/19 00:44:56;;;;;;;12.02;7.85;;;7.30;92.90;;;;;;5047430;28;20098;-62
2021/05/19 00:47:37;;;;;;;10.63;7.82;;;7.30;92.80;;;;;;5049364;28;20104;-61
2021/05/19 00:50:05;;;;;;;11.73;7.78;;;6.00;92.60;;;;;;5046033;28;20567;-62
2021/05/19 00:52:31;;;;;;;10.00;7.32;;;7.40;92.90;;;;;;5048556;28;20114;-61
2021/05/19 00:54:57;;;;;;;10.65;7.75;;;7.30;93.10;;;;;;5047446;28;20080;-62
2021/05/19 00:57:23;;;;;;;12.00;7.85;;;7.20;92.70;;;;;;5048619;28;20606;-62
2021/05/19 00:59:50;;;;;;;12.95;7.88;;;7.10;92.80;;;;;;5048369;28;20080;-62
2021/05/19 01:02:17;;;;;;;11.80;7.70;;;7.70;92.90;;;;;;5048744;28;20116;-61
2021/05/19 01:04:43;;;;;;;17.15;7.90;;;7.80;92.80;;;;;;5044568;28;20088;-62
2021/05/19 01:07:24;;;;;;;11.85;8.27;;;7.40;92.90;;;;;;5049090;28;20120;-61
2021/05/19 01:09:50;;;;;;;14.18;8.48;;;8.90;93.30;;;;;;5048215;28;20187;-62
2021/05/19 01:12:20;;;;;;;12.32;7.57;;;6.70;93.10;;;;;;5048374;28;20097;-62
2021/05/19 01:14:47;;;;;;;;;;;7.10;92.80;;;;;;5049584;28;20078;-61
2021/05/19 01:17:13;;;;;;;12.05;8.50;;;6.90;92.90;;;;;;5056381;28;20059;-62
2021/05/19 01:19:45;;;;;;;12.02;7.90;;;7.00;92.80;;;;;;5046467;28;20090;-62
2021/05/19 01:22:25;;;;;;;10.88;7.70;;;6.40;92.50;;;;;;5049719;28;20566;-62
2021/05/19 01:24:52;;;;;;;11.75;7.60;;;7.20;92.90;;;;;;5039067;28;20089;-62
2021/05/19 01:27:18;;;;;;;10.38;7.68;;;6.60;92.60;;;;;;5048707;28;20184;-61
2021/05/19 01:29:49;;;;;;;11.02;8.00;;;5.70;92.30;;;;;;5047147;28;20095;-61
2021/05/19 01:32:15;;;;;;;12.93;8.77;;;7.00;92.70;;;;;;5047681;28;20565;-61
2021/05/19 01:34:41;;;;;;;8.75;7.25;;;6.60;93.10;;;;;;5051194;28;20092;-61
2021/05/19 01:37:11;;;;;;;12.10;8.93;;;6.00;92.80;;;;;;5050351;28;20096;-61
2021/05/19 01:39:42;;;;;;;12.75;8.77;;;8.00;93.20;;;;;;5045891;28;20088;-61
2021/05/19 01:42:09;;;;;;;10.73;7.97;;;6.90;93.50;;;;;;5056239;28;20104;-61
2021/05/19 01:44:35;;;;;;;12.63;8.88;;;6.80;92.90;;;;;;5048084;28;20091;-61
2021/05/19 01:47:04;;;;;;;14.23;9.32;;;7.80;93.30;;;;;;5047237;28;20194;-61
2021/05/19 01:49:38;;;;;;;14.00;8.88;;;7.90;93.30;;;;;;5048896;28;20504;-61
2021/05/19 01:52:05;;;;;;;14.10;7.97;;;6.80;92.80;;;;;;5047107;28;20103;-61
2021/05/19 01:54:31;;;;;;;16.15;9.73;;;7.00;93.00;;;;;;5047865;28;20195;-62
2021/05/19 01:56:58;;;;;;;12.48;9.23;;;7.40;93.00;;;;;;5047643;28;20620;-62
2021/05/19 01:59:24;;;;;;;12.73;9.15;;;7.30;93.60;;;;;;5046938;28;20092;-62
2021/05/19 02:01:50;;;;;;;12.27;8.57;;;6.80;93.20;;;;;;5043152;28;20170;-61
2021/05/19 02:04:17;;;;;;;10.32;8.07;;;7.90;93.80;;;;;;5051407;28;20084;-61
2021/05/19 02:06:55;;;;;;;17.48;10.18;;;6.70;93.20;;;;;;5057877;28;20092;-62
2021/05/19 02:09:22;;;;;;;14.77;9.45;;;6.60;93.00;;;;;;5050674;28;20442;-62
2021/05/19 02:11:49;;;;;;;13.88;9.23;;;6.00;93.00;;;;;;5048337;28;20150;-61
2021/05/19 02:14:15;;;;;;;15.10;9.90;;;6.70;93.40;;;;;;5047675;28;20091;-61
2021/05/19 02:16:41;;;;;;;13.40;9.18;;;6.80;93.30;;;;;;5044672;28;20088;-62
2021/05/19 02:19:12;;;;;;;14.13;9.40;;;5.90;93.20;;;;;;5045088;28;20175;-63
2021/05/19 02:21:42;;;;;;;12.73;9.07;;;6.90;93.10;;;;;;5045456;28;20136;-62
2021/05/19 02:24:09;;;;;;;15.73;9.07;;;6.70;93.30;;;;;;5047282;28;20120;-60
2021/05/19 02:26:36;;;;;;;12.73;9.25;;;6.90;93.20;;;;;;5057308;28;20167;-61
2021/05/19 02:29:02;;;;;;;12.35;8.45;;;8.10;93.60;;;;;;5050519;28;20095;-61
2021/05/19 02:31:28;;;;;;;12.00;8.27;;;6.30;93.20;;;;;;5054534;28;20092;-62
2021/05/19 02:33:54;;;;;;;15.70;9.27;;;7.60;93.30;;;;;;5049787;28;20146;-62
2021/05/19 02:36:20;;;;;;;16.27;9.23;;;8.20;93.30;;;;;;5049888;28;20174;-62
2021/05/19 02:38:45;;;;;;;12.68;9.55;;;6.70;93.00;;;;;;5040233;28;20093;-61
2021/05/19 02:41:11;;;;;;;18.52;11.23;;;6.90;93.10;;;;;;5053483;28;20126;-62
2021/05/19 02:43:37;;;;;;;12.73;9.23;;;6.90;93.20;;;;;;5051439;28;20089;-62
2021/05/19 02:46:03;;;;;;;17.30;10.40;;;6.90;93.30;;;;;;5050988;28;20115;-62
2021/05/19 02:48:29;;;;;;;16.17;10.07;;;8.60;93.80;;;;;;5048051;28;20520;-62
2021/05/19 02:50:55;;;;;;;16.77;11.10;;;7.40;93.80;;;;;;5051045;28;20093;-62
2021/05/19 02:53:21;;;;;;;14.00;10.07;;;6.90;93.60;;;;;;5052567;28;20085;-62
2021/05/19 02:55:47;;;;;;;16.88;10.38;;;7.00;93.40;;;;;;5051399;28;20334;-62
2021/05/19 02:58:13;;;;;;;15.23;10.10;;;7.10;93.40;;;;;;5050963;28;20120;-62
2021/05/19 03:00:39;;;;;;;17.13;11.43;;;6.90;93.30;;;;;;5049187;28;20109;-62
2021/05/19 03:03:05;;;;;;;14.50;10.30;;;8.60;94.00;;;;;;5050642;28;20126;-62
2021/05/19 03:05:31;;;;;;;15.18;10.57;;;7.20;93.40;;;;;;5049041;28;20274;-62
2021/05/19 03:07:58;;;;;;;13.00;9.45;;;7.40;93.30;;;;;;5051611;28;20144;-62
2021/05/19 03:10:25;;;;;;;13.88;9.40;;;7.30;93.50;;;;;;5049158;28;20091;-62
2021/05/19 03:12:51;;;;;;;14.82;10.02;;;6.90;93.80;;;;;;5050388;28;20136;-62
2021/05/19 03:15:20;;;;;;;14.40;9.85;;;6.70;94.10;;;;;;5050569;28;20128;-62
2021/05/19 03:17:46;;;;;;;15.95;10.38;;;7.40;93.50;;;;;;5042943;28;20081;-62
2021/05/19 03:20:13;;;;;;;16.70;11.30;;;7.40;93.70;;;;;;5051287;28;20551;-61
2021/05/19 03:22:39;;;;;;;14.85;11.32;;;7.50;93.70;;;;;;5050866;28;20172;-62
2021/05/19 03:25:07;;;;;;;16.45;10.27;;;7.40;93.70;;;;;;5050657;28;20093;-61
2021/05/19 03:27:35;;;;;;;16.55;10.90;;;6.90;93.50;;;;;;5049159;28;20466;-62
2021/05/19 03:30:02;;;;;;;17.98;11.98;;;7.60;94.20;;;;;;5050377;28;20093;-62
2021/05/19 03:32:28;;;;;;;16.58;10.80;;;7.80;94.00;;;;;;5048299;28;20168;-62
2021/05/19 03:34:54;;;;;;;22.10;13.73;;;7.00;94.30;;;;;;5049262;28;20223;-62
2021/05/19 03:37:20;;;;;;;15.80;10.85;;;7.60;94.40;;;;;;5049334;28;20085;-62
2021/05/19 03:39:46;;;;;;;17.80;11.18;;;7.50;94.00;;;;;;5048400;28;20130;-62
2021/05/19 03:42:12;;;;;;;16.67;10.85;;;8.90;94.20;;;;;;5050104;28;20111;-62
2021/05/19 03:44:38;;;;;;;16.13;11.63;;;7.60;93.90;;;;;;5049331;28;20084;-62
2021/05/19 03:47:04;;;;;;;14.70;10.95;;;7.70;93.80;;;;;;5049757;28;20093;-62
2021/05/19 03:49:34;;;;;;;17.23;11.05;;;7.80;93.80;;;;;;5049784;28;20096;-62
2021/05/19 03:52:00;;;;;;;15.85;11.18;;;7.70;93.70;;;;;;5049876;28;20506;-61
2021/05/19 03:54:26;;;;;;;20.42;11.63;;;7.50;93.60;;;;;;5049822;28;20088;-61
2021/05/19 03:56:52;;;;;;;17.38;11.85;;;7.90;93.70;;;;;;5048415;28;20099;-61
2021/05/19 03:59:18;;;;;;;16.60;11.40;;;7.80;93.70;;;;;;5050320;28;20092;-61
2021/05/19 04:01:43;;;;;;;15.60;11.40;;;8.10;93.80;;;;;;5047583;28;20161;-61
2021/05/19 04:04:09;;;;;;;16.98;11.38;;;7.80;93.70;;;;;;5049314;28;20142;-63
2021/05/19 04:06:36;;;;;;;16.83;11.25;;;7.60;93.80;;;;;;5047221;28;20116;-62
2021/05/19 04:09:06;;;;;;;18.92;11.18;;;7.90;93.80;;;;;;5046564;28;20115;-62
2021/05/19 04:11:32;;;;;;;17.70;12.48;;;7.70;94.00;;;;;;5049576;28;20091;-61
2021/05/19 04:13:58;;;;;;;18.80;12.15;;;8.00;94.10;;;;;;5047254;28;20104;-61
2021/05/19 04:16:24;;;;;;;18.10;11.15;;;8.20;94.20;;;;;;5047150;28;20094;-61
2021/05/19 04:18:50;;;;;;;17.63;12.07;;;7.70;93.90;;;;;;5047055;28;20084;-61
2021/05/19 04:21:16;;;;;;;19.17;12.82;;;6.90;93.60;;;;;;5040540;28;20189;-61
2021/05/19 04:23:42;;;;;;;17.45;12.27;;;8.10;94.10;;;;;;5049897;28;20466;-61
2021/05/19 04:26:08;;;;;;;20.50;13.25;;;8.10;94.20;;;;;;5049670;28;20096;-61
2021/05/19 04:28:35;;;;;;;20.65;14.15;;;8.30;94.10;;;;;;5048395;28;20137;-61
2021/05/19 04:31:01;;;;;;;24.40;14.40;;;8.40;94.80;;;;;;5047401;28;20088;-61
2021/05/19 04:33:27;;;;;;;24.23;14.80;;;8.30;94.30;;;;;;5047106;28;20525;-61
2021/05/19 04:35:53;;;;;;;22.35;14.48;;;8.30;94.20;;;;;;5048403;28;20084;-61
2021/05/19 04:38:19;;;;;;;20.80;14.00;;;8.10;94.40;;;;;;5047748;28;20133;-61
2021/05/19 04:40:46;;;;;;;23.33;15.38;;;8.50;94.40;;;;;;5047897;28;20258;-61
2021/05/19 04:43:13;;;;;;;23.35;14.68;;;6.90;94.00;;;;;;5052543;28;20095;-62
2021/05/19 04:45:39;;;;;;;20.35;14.60;;;9.00;94.70;;;;;;5048056;28;20163;-61
2021/05/19 04:48:06;;;;;;;20.60;14.90;;;8.70;94.40;;;;;;5050229;28;20096;-62
2021/05/19 04:50:33;;;;;;;20.17;14.85;;;8.70;94.50;;;;;;5048229;28;20113;-61
2021/05/19 04:53:00;;;;;;;22.05;15.70;;;8.70;94.50;;;;;;5047465;28;20093;-61
2021/05/19 04:55:26;;;;;;;23.58;14.40;;;8.80;94.60;;;;;;5047399;28;20088;-61
2021/05/19 04:57:52;;;;;;;23.63;15.30;;;7.80;94.20;;;;;;5048588;28;20130;-61
2021/05/19 05:00:18;;;;;;;22.52;14.68;;;8.90;94.50;;;;;;5048980;28;20476;-61
2021/05/19 05:02:44;;;;;;;20.52;14.05;;;8.80;94.60;;;;;;5047723;28;20231;-61
2021/05/19 05:05:11;;;;;;;32.15;21.33;;;9.10;94.60;;;;;;5047873;28;20091;-61
2021/05/19 05:07:37;;;;;;;19.83;14.30;;;8.90;94.40;;;;;;5048884;28;20438;-61
2021/05/19 05:10:05;;;;;;;22.17;15.98;;;8.90;94.30;;;;;;5049098;28;20096;-61
2021/05/19 05:12:30;;;;;;;23.08;14.68;;;9.00;94.30;;;;;;5048923;28;20167;-61
2021/05/19 05:14:57;;;;;;;23.80;14.82;;;9.40;94.40;;;;;;5049996;28;20103;-61
2021/05/19 05:17:23;;;;;;;24.08;15.00;;;9.10;94.30;;;;;;5047832;28;20096;-61
2021/05/19 05:19:48;;;;;;;20.92;14.30;;;9.10;94.30;;;;;;5056750;28;20138;-61
2021/05/19 05:22:14;;;;;;;21.42;13.75;;;8.80;94.10;;;;;;5047633;28;20554;-61
2021/05/19 05:24:40;;;;;;;19.13;14.73;;;9.30;94.30;;;;;;5048204;28;20466;-61
2021/05/19 05:27:06;;;;;;;19.73;14.32;;;9.30;94.30;;;;;;5049508;28;20100;-62
2021/05/19 05:29:32;;;;;;;19.55;13.82;;;10.80;94.20;;;;;;5047253;28;20081;-61
2021/05/19 05:31:58;;;;;;;21.17;14.77;;;9.70;93.80;;;;;;5047766;28;20096;-61
2021/05/19 05:34:24;;;;;;;17.15;12.02;;;9.20;93.80;;;;;;5049929;28;20574;-60
2021/05/19 05:36:51;;;;;;;18.67;12.52;;;9.60;93.90;;;;;;5052016;28;20176;-61
2021/05/19 05:39:18;;;;;;;23.05;13.65;;;9.70;93.40;;;;;;5045949;28;20086;-61
2021/05/19 05:41:44;;;;;;;18.05;13.05;;;9.80;93.20;;;;;;5047642;28;20784;-60
2021/05/19 05:44:10;;;;;;;20.58;12.52;;;9.70;93.30;;;;;;5047708;28;20117;-60
2021/05/19 05:46:35;;;;;;;24.33;14.68;;;9.80;93.20;;;;;;5031083;28;20176;-60
2021/05/19 05:49:02;;;;;;;16.63;13.10;;;9.80;93.40;;;;;;5044959;28;20163;-60
2021/05/19 05:51:28;;;;;;;18.42;12.93;;;9.90;93.10;;;;;;5044231;28;20093;-62
2021/05/19 05:53:54;;;;;;;17.48;13.90;;;9.90;93.20;;;;;;5050024;28;20101;-61
2021/05/19 05:56:21;;;;;;;19.90;12.88;;;9.80;92.90;;;;;;5047110;28;20546;-61
2021/05/19 05:58:48;;;;;;;15.98;12.63;;;9.70;93.00;;;;;;5054205;28;20090;-61
2021/05/19 06:01:14;;;;;;;19.73;13.68;;;10.20;93.00;;;;;;5054058;28;20120;-61
2021/05/19 06:03:40;;;;;;;21.00;14.10;;;10.40;93.30;;;;;;5042609;28;20165;-61
2021/05/19 06:06:06;;;;;;;18.75;13.38;;;9.70;92.40;;;;;;5043904;28;20171;-61
2021/05/19 06:08:32;;;;;;;21.33;13.65;;;10.60;91.90;;;;;;5045491;28;20120;-61
2021/05/19 06:10:58;;;;;;;20.65;14.45;;;10.60;92.10;;;;;;5052034;28;20068;-62
2021/05/19 06:13:24;;;;;;;18.50;12.18;;;10.40;91.70;;;;;;5083414;28;20582;-61
2021/05/19 06:15:50;;;;;;;18.08;12.65;;;10.70;91.40;;;;;;5053839;28;20133;-61
2021/05/19 06:18:16;;;;;;;20.85;13.15;;;10.70;91.30;;;;;;5048357;28;20079;-61
2021/05/19 06:20:42;;;;;;;20.58;14.10;;;10.40;92.00;;;;;;5055040;28;20556;-62
2021/05/19 06:23:08;;;;;;;19.48;12.68;;;10.80;92.10;;;;;;5051952;28;20060;-61
2021/05/19 06:25:34;;;;;;;19.48;13.07;;;10.80;91.40;;;;;;5050589;28;20284;-62
2021/05/19 06:27:59;;;;;;;20.92;13.63;;;10.80;91.60;;;;;;5052270;28;20177;-61
2021/05/19 06:30:25;;;;;;;25.83;15.65;;;11.00;91.60;;;;;;5056039;28;20085;-61
2021/05/19 06:32:51;;;;;;;19.55;13.55;;;10.80;91.60;;;;;;5050666;28;20139;-61
2021/05/19 06:35:17;;;;;;;25.40;13.88;;;10.70;91.30;;;;;;5049403;28;20192;-61
2021/05/19 06:37:44;;;;;;;20.75;14.10;;;10.80;91.60;;;;;;5060734;28;20081;-61
2021/05/19 06:40:10;;;;;;;19.52;13.35;;;10.80;91.70;;;;;;5051283;28;20139;-61
2021/05/19 06:42:36;;;;;;;24.05;13.90;;;10.70;91.60;;;;;;5048961;28;20159;-61
2021/05/19 06:45:02;;;;;;;20.80;13.82;;;10.50;91.80;;;;;;5056340;28;20184;-61
2021/05/19 06:47:28;;;;;;;20.13;14.18;;;10.70;91.90;;;;;;5057301;28;20180;-61
2021/05/19 06:49:54;;;;;;;24.67;15.73;;;11.00;92.20;;;;;;5052611;28;20172;-61
2021/05/19 06:52:21;;;;;;;20.65;12.15;;;10.70;91.90;;;;;;5055681;28;20177;-61
2021/05/19 06:54:48;;;;;;;23.80;14.52;;;10.70;92.00;;;;;;5049741;28;20112;-61
2021/05/19 06:57:14;;;;;;;24.38;14.63;;;10.60;91.90;;;;;;5046467;28;20101;-61
2021/05/19 06:59:40;;;;;;;24.02;15.68;;;10.60;91.90;;;;;;5054939;28;20096;-61
2021/05/19 07:02:06;;;;;;;20.67;14.32;;;10.60;92.00;;;;;;5063658;28;20562;-61
2021/05/19 07:04:32;;;;;;;22.80;15.73;;;10.60;91.90;;;;;;5052775;28;20171;-61
2021/05/19 07:06:58;;;;;;;28.85;15.65;;;10.60;92.00;;;;;;5050291;28;20090;-61
2021/05/19 07:09:25;;;;;;;25.95;15.27;;;10.60;92.20;;;;;;5051814;28;20428;-61
2021/05/19 07:11:52;;;;;;;24.30;15.52;;;10.30;92.20;;;;;;5049785;28;20089;-61
2021/05/19 07:14:19;;;;;;;25.20;16.30;;;10.60;92.30;;;;;;5054287;28;20172;-61
2021/05/19 07:16:54;;;;;;;29.60;18.50;;;10.70;92.60;;;;;;5050593;28;20090;-61
2021/05/19 07:19:23;;;;;;;29.35;15.93;;;10.60;91.90;;;;;;5049254;28;20088;-61
2021/05/19 07:21:51;;;;;;;23.95;15.40;;;10.70;92.10;;;;;;5050297;28;20097;-61
2021/05/19 07:24:17;;;;;;;27.73;16.80;;;10.30;92.50;;;;;;5060971;28;20089;-61
2021/05/19 07:26:46;;;;;;;24.65;16.85;;;11.10;92.50;;;;;;5059935;28;20516;-61
2021/05/19 07:29:13;;;;;;;28.23;17.52;;;11.80;92.70;;;;;;5063694;28;20107;-61
2021/05/19 07:31:40;;;;;;;31.48;17.60;;;11.00;92.30;;;;;;5057404;28;20542;-61
2021/05/19 07:34:06;;;;;;;28.40;18.00;;;11.00;92.40;;;;;;5055157;28;20089;-61
2021/05/19 07:36:33;;;;;;;32.15;18.23;;;11.10;92.20;;;;;;5057463;28;20135;-61
2021/05/19 07:38:59;;;;;;;27.88;19.33;;;11.10;92.10;;;;;;5050043;28;20550;-61
2021/05/19 07:41:27;;;;;;;28.98;18.85;;;10.30;92.00;;;;;;5055606;28;20546;-61
2021/05/19 07:43:53;;;;;;;26.83;18.30;;;11.90;92.50;;;;;;5038527;28;20093;-61
2021/05/19 07:46:19;;;;;;;30.13;18.52;;;11.60;91.90;;;;;;5045834;28;20094;-61
2021/05/19 07:48:45;;;;;;;28.40;18.65;;;11.70;92.20;;;;;;5053679;28;20138;-61
2021/05/19 07:51:12;;;;;;;30.67;19.42;;;11.70;91.30;;;;;;5055963;28;20550;-60
2021/05/19 07:53:37;;;;;;;31.45;19.75;;;12.00;91.50;;;;;;5053954;28;20082;-61
2021/05/19 07:59:02;;;;;;;36.30;20.42;;;12.10;91.40;;;;;;5046696;28;20188;-61
2021/05/19 08:03:54;;;;;;;33.38;21.25;;;12.40;91.80;;;;;;5055140;28;20127;-61
2021/05/19 08:06:20;;;;;;;36.88;21.23;;;12.60;91.60;;;;;;5053113;28;20056;-61
2021/05/19 08:08:47;;;;;;;35.00;23.05;;;12.90;91.70;;;;;;5052478;28;20410;-62
2021/05/19 08:11:15;;;;;;;28.58;19.63;;;13.40;91.30;;;;;;5045822;28;20089;-61
2021/05/19 08:13:42;;;;;;;26.75;18.80;;;13.80;86.40;;;;;;5050926;28;20100;-62
2021/05/19 08:16:08;;;;;;;32.17;20.90;;;14.30;87.70;;;;;;5057878;28;20093;-62
2021/05/19 08:18:35;;;;;;;24.67;16.05;;;14.60;87.00;;;;;;5054288;28;20088;-62
2021/05/19 08:21:01;;;;;;;26.60;18.02;;;14.70;82.60;;;;;;5045713;28;20439;-63
2021/05/19 08:23:27;;;;;;;20.88;15.20;;;14.70;83.20;;;;;;5052166;28;20065;-61
2021/05/19 08:25:54;;;;;;;22.83;15.75;;;14.40;78.80;;;;;;5048662;28;20635;-61
2021/05/19 08:28:20;;;;;;;25.08;16.40;;;14.30;81.60;;;;;;5049756;28;20044;-62
2021/05/19 08:30:46;;;;;;;26.35;17.63;;;14.40;79.60;;;;;;5048444;28;20079;-62
2021/05/19 08:33:12;;;;;;;22.10;15.95;;;14.40;82.40;;;;;;5049188;28;20174;-62
2021/05/19 08:35:37;;;;;;;21.33;15.75;;;14.40;82.40;;;;;;5042927;28;20132;-62
2021/05/19 08:38:03;;;;;;;18.80;14.07;;;14.50;83.20;;;;;;5049867;28;20090;-61
2021/05/19 08:40:29;;;;;;;19.48;14.13;;;14.60;81.00;;;;;;5052748;28;20063;-62
2021/05/19 08:42:56;;;;;;;19.70;13.02;;;14.60;78.90;;;;;;5048483;28;20115;-62
2021/05/19 08:45:22;;;;;;;14.85;11.40;;;14.50;79.50;;;;;;5046273;28;20119;-62
2021/05/19 08:47:56;;;;;;;16.50;10.75;;;14.60;79.00;;;;;;5049806;28;20115;-62
2021/05/19 08:50:25;;;;;;;17.92;11.88;;;14.90;78.80;;;;;;5053436;28;20103;-62
2021/05/19 08:52:51;;;;;;;14.30;11.65;;;14.50;78.80;;;;;;5058535;28;20037;-61
2021/05/19 08:55:18;;;;;;;15.82;12.07;;;14.60;77.70;;;;;;5050685;28;20563;-62
2021/05/19 08:57:48;;;;;;;13.13;10.00;;;14.40;75.90;;;;;;5051283;28;20052;-62
2021/05/19 09:00:15;;;;;;;21.95;10.70;;;14.50;76.00;;;;;;5048904;28;20077;-61
2021/05/19 09:02:42;;;;;;;15.73;11.55;;;14.60;77.60;;;;;;5048489;28;20497;-62
2021/05/19 09:05:08;;;;;;;15.43;10.65;;;14.80;77.30;;;;;;5051352;28;20138;-61
2021/05/19 09:07:36;;;;;;;15.52;9.57;;;14.80;76.60;;;;;;5047829;28;20085;-61
2021/05/19 09:10:18;;;;;;;11.15;9.05;;;14.90;75.30;;;;;;5045208;28;20094;-61
2021/05/19 09:12:44;;;;;;;14.43;9.05;;;15.20;74.60;;;;;;5044565;28;20037;-61
2021/05/19 09:15:13;;;;;;;14.73;9.02;;;16.70;72.40;;;;;;5052179;28;20097;-62
2021/05/19 09:17:40;;;;;;;14.68;9.43;;;16.30;72.40;;;;;;5034886;28;20112;-60
2021/05/19 09:20:15;;;;;;;11.60;9.68;;;15.90;73.50;;;;;;5055244;28;20095;-60
2021/05/19 09:22:46;;;;;;;16.40;11.55;;;16.10;71.60;;;;;;5049968;28;20112;-61
2021/05/19 09:25:21;;;;;;;10.98;9.05;;;16.40;73.70;;;;;;5048083;28;20086;-61
2021/05/19 09:27:50;;;;;;;11.68;8.35;;;17.90;66.60;;;;;;5047501;28;20174;-61
2021/05/19 09:30:34;;;;;;;11.38;9.80;;;17.10;68.30;;;;;;5049794;28;20550;-61
2021/05/19 09:33:21;;;;;;;13.73;9.60;;;17.30;62.30;;;;;;5049830;28;20036;-61
2021/05/19 09:36:07;;;;;;;11.88;9.68;;;17.10;64.20;;;;;;5061393;28;20089;-61
2021/05/19 09:38:33;;;;;;;11.45;8.38;;;17.10;67.50;;;;;;5052009;28;20116;-61
2021/05/19 09:41:18;;;;;;;12.73;9.68;;;17.10;67.10;;;;;;5053405;28;20132;-62
2021/05/19 09:43:45;;;;;;;15.10;9.82;;;16.90;65.00;;;;;;5049793;28;20094;-61
2021/05/19 09:46:17;;;;;;;12.75;9.65;;;16.70;65.80;;;;;;5050290;28;20093;-61
2021/05/19 09:48:44;;;;;;;15.13;8.95;;;16.50;67.00;;;;;;5053980;28;20163;-61
2021/05/19 09:51:10;;;;;;;13.80;8.93;;;16.40;66.70;;;;;;5063746;28;20087;-61
2021/05/19 09:53:36;;;;;;;14.13;10.23;;;16.10;68.00;;;;;;5053489;28;20093;-61
2021/05/19 09:56:01;;;;;;;13.85;8.48;;;15.80;67.20;;;;;;5049999;28;20173;-61
2021/05/19 09:58:42;;;;;;;11.70;8.70;;;15.60;68.10;;;;;;5050171;28;20077;-61
2021/05/19 10:01:09;;;;;;;13.40;9.65;;;15.30;68.20;;;;;;5058855;28;20096;-61
2021/05/19 10:03:37;;;;;;;13.93;10.95;;;15.10;69.70;;;;;;5077780;28;20179;-61
2021/05/19 10:08:39;;;;;;;12.65;10.93;;;13.70;76.30;;;;;;5053213;28;20065;-61
2021/05/19 10:11:05;;;;;;;19.70;13.15;;;14.50;76.40;;;;;;5052059;28;20081;-61
2021/05/19 10:13:34;;;;;;;15.75;11.02;;;14.30;76.40;;;;;;5048517;28;20062;-61
2021/05/19 10:16:02;;;;;;;19.70;11.23;;;14.00;79.80;;;;;;5050632;28;20054;-61
2021/05/19 10:18:49;;;;;;;18.88;12.75;;;14.00;79.50;;;;;;5056401;28;20108;-62
2021/05/19 10:21:16;;;;;;;16.30;11.38;;;13.80;82.70;;;;;;5040973;28;20037;-61
2021/05/19 10:24:06;;;;;;;15.48;11.35;;;13.70;82.60;;;;;;5054366;28;20123;-61
2021/05/19 10:27:19;;;;;;;16.15;11.45;;;13.60;81.60;;;;;;5046440;28;20032;-60
2021/05/19 10:29:48;;;;;;;16.27;10.77;;;13.50;82.70;;;;;;5051682;28;20069;-60
2021/05/19 10:32:23;;;;;;;11.93;9.32;;;14.40;85.40;;;;;;5050828;28;20081;-59
2021/05/19 10:34:50;;;;;;;12.20;8.50;;;13.50;84.20;;;;;;5044095;28;20052;-60
2021/05/19 10:37:45;;;;;;;12.77;8.85;;;13.40;83.90;;;;;;5055855;28;20048;-60
2021/05/19 10:40:15;;;;;;;11.85;8.85;;;13.30;83.90;;;;;;5058905;28;20064;-60
2021/05/19 10:42:43;;;;;;;;;;;13.40;84.10;;;;;;5049364;28;20735;-61
2021/05/19 10:45:17;;;;;;;9.55;7.28;;;13.40;83.50;;;;;;5050184;28;19917;-61
2021/05/19 10:47:45;;;;;;;8.75;7.03;;;13.30;83.30;;;;;;5050093;28;20040;-61
2021/05/19 10:50:37;;;;;;;7.22;6.25;;;13.10;81.80;;;;;;5051900;28;20091;-61
2021/05/19 10:59:15;;;;;;;8.45;6.45;;;13.40;81.80;;;;;;5051691;28;20051;-60
2021/05/19 11:01:42;;;;;;;9.40;5.93;;;13.60;81.90;;;;;;5048539;28;20439;-61
2021/05/19 11:04:19;;;;;;;7.88;5.63;;;13.00;81.20;;;;;;5057625;28;20055;-61
2021/05/19 11:06:59;;;;;;;7.50;4.90;;;13.50;83.10;;;;;;5045291;28;20144;-61
2021/05/19 11:09:31;;;;;;;8.85;5.00;;;13.90;81.00;;;;;;5054137;28;20498;-60
2021/05/19 11:12:21;;;;;;;6.03;4.30;;;13.80;81.50;;;;;;5048374;28;20085;-61
2021/05/19 11:14:57;;;;;;;6.80;4.60;;;12.90;77.40;;;;;;5053909;28;20067;-61
2021/05/19 11:17:45;;;;;;;6.68;4.25;;;14.20;79.00;;;;;;5054120;28;20076;-61
2021/05/19 11:20:12;;;;;;;5.38;3.65;;;14.30;79.90;;;;;;5049693;28;20072;-60
2021/05/19 11:22:37;;;;;;;4.72;3.42;;;14.80;78.40;;;;;;5083598;28;20087;-60
2021/05/19 11:25:06;;;;;;;4.32;3.00;;;14.50;78.50;;;;;;5053886;28;20056;-61
2021/05/19 11:27:34;;;;;;;4.95;3.30;;;14.70;77.00;;;;;;5051243;28;20069;-60
2021/05/19 11:30:04;;;;;;;3.90;3.10;;;14.70;76.00;;;;;;5046356;28;20066;-61
2021/05/19 11:32:30;;;;;;;;;;;14.70;75.90;;;;;;5047988;28;20049;-60
2021/05/19 11:35:15;;;;;;;4.10;3.53;;;16.10;74.70;;;;;;5043234;28;19943;-61
2021/05/19 11:37:57;;;;;;;6.50;3.22;;;14.80;74.90;;;;;;5043987;28;20044;-61
2021/05/19 11:40:35;;;;;;;5.25;3.53;;;14.90;75.60;;;;;;5055150;28;20054;-60
2021/05/19 11:43:00;;;;;;;5.82;3.33;;;13.90;70.90;;;;;;5055636;28;20174;-60
2021/05/19 11:45:26;;;;;;;5.80;3.35;;;15.10;72.50;;;;;;5049523;28;20064;-60
2021/05/19 11:47:52;;;;;;;4.47;3.45;;;15.10;73.40;;;;;;5048907;28;20037;-60
2021/05/19 11:50:30;;;;;;;4.75;3.67;;;16.20;76.40;;;;;;5051360;28;20116;-60
2021/05/19 11:53:02;;;;;;;4.95;4.10;;;14.90;76.00;;;;;;5052392;28;20054;-60
2021/05/19 11:55:50;;;;;;;6.75;4.47;;;14.80;75.40;;;;;;5047335;28;20501;-61
2021/05/19 11:58:27;;;;;;;6.30;4.32;;;14.70;74.00;;;;;;5050227;28;20033;-61
2021/05/19 12:00:58;;;;;;;6.80;4.20;;;14.60;75.40;;;;;;5048904;28;20139;-61
2021/05/19 12:03:29;;;;;;;4.60;3.75;;;14.50;75.30;;;;;;5046977;28;20090;-60
2021/05/19 12:05:55;;;;;;;10.48;6.45;;;14.50;75.70;;;;;;5050858;28;20033;-60
2021/05/19 12:08:35;;;;;;;10.10;6.47;;;14.40;75.80;;;;;;5044522;28;20048;-61
2021/05/19 12:11:04;;;;;;;8.10;5.97;;;14.40;76.10;;;;;;5040964;28;20045;-60
2021/05/19 12:13:31;;;;;;;7.50;4.75;;;14.10;76.30;;;;;;5047406;28;20036;-60
2021/05/19 12:15:57;;;;;;;7.25;4.35;;;13.80;76.00;;;;;;5051356;28;20060;-61
2021/05/19 12:18:23;;;;;;;6.32;4.35;;;13.80;76.50;;;;;;5048356;28;20035;-61
2021/05/19 12:20:52;;;;;;;6.82;4.50;;;13.60;78.90;;;;;;5049010;28;20036;-61
2021/05/19 12:23:18;;;;;;;5.03;4.53;;;13.70;79.60;;;;;;5050312;28;20045;-61
2021/05/19 12:25:45;;;;;;;8.77;5.55;;;13.30;79.50;;;;;;5050733;28;20090;-61
2021/05/19 12:28:24;;;;;;;9.23;5.70;;;13.20;79.40;;;;;;5053069;28;20040;-61
2021/05/19 12:30:57;;;;;;;7.47;5.57;;;13.20;81.40;;;;;;5048021;28;20069;-61
2021/05/19 12:33:26;;;;;;;6.30;5.30;;;13.10;79.70;;;;;;5047369;28;20032;-62
2021/05/19 12:35:52;;;;;;;7.55;4.88;;;13.00;80.60;;;;;;5048233;28;20040;-61
2021/05/19 12:38:24;;;;;;;7.57;5.60;;;11.00;77.20;;;;;;5048128;28;20048;-62
2021/05/19 12:40:51;;;;;;;9.20;4.68;;;13.30;79.10;;;;;;5047618;28;20037;-63
2021/05/19 12:43:25;;;;;;;7.57;5.18;;;13.90;81.40;;;;;;5052283;28;20055;-61
2021/05/19 12:45:53;;;;;;;9.07;4.63;;;12.90;80.90;;;;;;5051814;28;20041;-61
2021/05/19 12:48:21;;;;;;;5.40;3.65;;;12.90;78.10;;;;;;5051102;28;20044;-60
2021/05/19 12:50:54;;;;;;;6.35;4.50;;;12.70;77.70;;;;;;5046910;28;20514;-62
2021/05/19 12:53:45;;;;;;;5.40;4.18;;;12.60;77.70;;;;;;5050086;28;20044;-60
2021/05/19 12:56:18;;;;;;;6.00;4.22;;;12.70;78.80;;;;;;5051488;28;20064;-61
2021/05/19 12:59:01;;;;;;;5.65;3.28;;;12.40;80.60;;;;;;5049091;28;20033;-61